createdAt,value
2022-10-08T00:01:24.154Z,8.05
2022-10-08T00:03:53.575Z,7.00
2022-10-08T00:06:22.155Z,6.85
2022-10-08T00:08:55.370Z,7.03
2022-10-08T00:11:25.704Z,7.30
2022-10-08T00:13:54.747Z,7.25
2022-10-08T00:16:28.421Z,6.90
2022-10-08T00:18:59.659Z,7.25
2022-10-08T00:21:32.766Z,6.93
2022-10-08T00:24:01.589Z,7.78
2022-10-08T00:26:32.006Z,7.07
2022-10-08T00:29:02.188Z,7.47
2022-10-08T00:31:32.336Z,7.38
2022-10-08T00:34:02.869Z,7.63
2022-10-08T00:36:32.504Z,7.85
2022-10-08T00:39:08.924Z,7.47
2022-10-08T00:41:38.602Z,6.78
2022-10-08T00:44:43.206Z,7.10
2022-10-08T00:47:33.482Z,7.05
2022-10-08T00:50:17.364Z,7.55
2022-10-08T00:52:48.711Z,7.75
2022-10-08T00:55:20.559Z,7.35
2022-10-08T00:57:48.783Z,7.72
2022-10-08T01:00:25.397Z,6.68
2022-10-08T01:02:54.310Z,7.30
2022-10-08T01:05:48.913Z,7.63
2022-10-08T01:08:24.594Z,6.90
2022-10-08T01:11:19.559Z,6.95
2022-10-08T01:14:25.897Z,6.30
2022-10-08T01:16:56.236Z,6.90
2022-10-08T01:19:41.819Z,7.20
2022-10-08T01:22:30.642Z,6.90
2022-10-08T01:25:29.553Z,7.30
2022-10-08T01:28:00.972Z,7.13
2022-10-08T01:30:33.752Z,7.75
2022-10-08T01:33:12.360Z,7.05
2022-10-08T01:35:46.996Z,7.13
2022-10-08T01:38:17.918Z,7.10
2022-10-08T01:40:48.509Z,7.35
2022-10-08T01:43:20.894Z,6.65
2022-10-08T01:45:53.630Z,7.75
2022-10-08T01:48:25.757Z,7.93
2022-10-08T01:50:58.822Z,6.38
2022-10-08T01:53:28.946Z,6.68
2022-10-08T01:55:57.753Z,7.15
2022-10-08T01:58:34.562Z,7.80
2022-10-08T02:01:10.784Z,7.32
2022-10-08T02:03:38.099Z,7.05
2022-10-08T02:06:07.050Z,6.93
2022-10-08T02:08:34.372Z,6.70
2022-10-08T02:11:01.754Z,6.95
2022-10-08T02:13:30.462Z,7.07
2022-10-08T02:16:07.094Z,7.50
2022-10-08T02:18:58.405Z,7.00
2022-10-08T02:21:28.510Z,6.63
2022-10-08T02:23:55.696Z,6.43
2022-10-08T02:26:31.603Z,6.70
2022-10-08T02:29:13.580Z,6.65
2022-10-08T02:31:52.588Z,6.85
2022-10-08T02:34:41.560Z,6.53
2022-10-08T02:37:21.724Z,6.78
2022-10-08T02:40:10.096Z,6.50
2022-10-08T02:42:42.635Z,7.20
2022-10-08T02:45:20.442Z,7.75
2022-10-08T02:47:53.894Z,7.22
2022-10-08T02:50:25.649Z,7.20
2022-10-08T02:55:41.970Z,7.85
2022-10-08T02:58:11.543Z,7.55
2022-10-08T03:01:21.229Z,6.75
2022-10-08T03:03:57.179Z,7.03
2022-10-08T03:06:28.106Z,7.13
2022-10-08T03:08:59.725Z,7.27
2022-10-08T03:11:29.888Z,7.53
2022-10-08T03:14:02.013Z,6.53
2022-10-08T03:16:38.222Z,6.82
2022-10-08T03:19:09.155Z,6.55
2022-10-08T03:21:39.581Z,7.40
2022-10-08T03:24:08.164Z,6.97
2022-10-08T03:26:36.098Z,7.25
2022-10-08T03:29:04.684Z,7.28
2022-10-08T03:31:32.890Z,7.55
2022-10-08T03:34:00.940Z,7.22
2022-10-08T03:36:29.735Z,6.70
2022-10-08T03:38:58.216Z,7.28
2022-10-08T03:41:26.194Z,6.32
2022-10-08T03:43:54.060Z,6.93
2022-10-08T03:46:22.047Z,6.85
2022-10-08T03:48:50.448Z,7.13
2022-10-08T03:51:19.922Z,6.95
2022-10-08T03:53:47.952Z,7.53
2022-10-08T03:56:20.870Z,6.90
2022-10-08T03:58:53.723Z,6.97
2022-10-08T04:01:24.054Z,7.15
2022-10-08T04:03:51.984Z,6.75
2022-10-08T04:06:19.814Z,6.78
2022-10-08T04:08:47.374Z,6.63
2022-10-08T04:11:19.953Z,6.70
2022-10-08T04:13:47.888Z,7.55
2022-10-08T04:16:18.276Z,6.90
2022-10-08T04:18:47.238Z,6.75
2022-10-08T04:21:16.846Z,6.65
2022-10-08T04:23:45.165Z,6.53
2022-10-08T04:26:14.934Z,6.57
2022-10-08T04:28:48.373Z,6.32
2022-10-08T04:31:23.563Z,7.18
2022-10-08T04:33:52.662Z,6.88
2022-10-08T04:36:25.449Z,7.32
2022-10-08T04:38:53.112Z,7.60
2022-10-08T04:41:23.429Z,6.97
2022-10-08T04:43:52.349Z,7.65
2022-10-08T04:46:21.906Z,7.15
2022-10-08T04:48:54.767Z,6.78
2022-10-08T04:51:24.497Z,6.53
2022-10-08T04:53:53.092Z,7.60
2022-10-08T04:56:24.626Z,7.40
2022-10-08T04:58:55.161Z,9.00
2022-10-08T05:01:23.938Z,7.97
2022-10-08T05:03:54.199Z,7.72
2022-10-08T05:06:28.265Z,8.77
2022-10-08T05:08:56.868Z,8.80
2022-10-08T05:11:26.707Z,8.57
2022-10-08T05:13:55.937Z,8.18
2022-10-08T05:16:24.800Z,10.20
2022-10-08T05:18:53.252Z,8.20
2022-10-08T05:21:26.864Z,7.68
2022-10-08T05:24:02.596Z,7.80
2022-10-08T05:29:20.044Z,8.00
2022-10-08T05:31:47.340Z,8.13
2022-10-08T05:34:15.966Z,8.23
2022-10-08T05:36:43.478Z,7.22
2022-10-08T05:39:11.118Z,8.35
2022-10-08T05:41:38.537Z,7.82
2022-10-08T05:44:06.955Z,7.18
2022-10-08T05:46:36.246Z,7.13
2022-10-08T05:49:06.201Z,7.32
2022-10-08T05:51:34.224Z,8.68
2022-10-08T05:54:01.611Z,8.82
2022-10-08T05:56:29.324Z,9.13
2022-10-08T05:58:56.643Z,7.90
2022-10-08T06:01:28.134Z,9.10
2022-10-08T06:03:58.239Z,8.55
2022-10-08T06:06:26.134Z,8.73
2022-10-08T06:08:55.963Z,8.55
2022-10-08T06:11:23.311Z,8.90
2022-10-08T06:13:56.600Z,8.43
2022-10-08T06:16:27.858Z,8.23
2022-10-08T06:18:55.464Z,9.20
2022-10-08T06:21:25.132Z,9.13
2022-10-08T06:23:54.636Z,8.35
2022-10-08T06:26:24.010Z,8.68
2022-10-08T06:28:51.897Z,8.68
2022-10-08T06:31:20.021Z,8.48
2022-10-08T06:33:47.632Z,8.88
2022-10-08T06:36:18.911Z,8.95
2022-10-08T06:38:53.062Z,8.57
2022-10-08T06:41:21.145Z,9.57
2022-10-08T06:43:48.840Z,9.65
2022-10-08T06:46:17.385Z,9.75
2022-10-08T06:48:45.105Z,9.88
2022-10-08T06:51:15.492Z,9.90
2022-10-08T06:53:44.551Z,10.60
2022-10-08T06:56:16.536Z,10.35
2022-10-08T06:58:45.011Z,9.50
2022-10-08T07:01:18.485Z,9.73
2022-10-08T07:03:58.792Z,9.48
2022-10-08T07:06:26.556Z,9.27
2022-10-08T07:08:55.695Z,9.38
2022-10-08T07:11:23.997Z,8.80
2022-10-08T07:13:51.936Z,7.70
2022-10-08T07:16:21.988Z,9.70
2022-10-08T07:18:51.222Z,9.07
2022-10-08T07:21:21.023Z,10.45
2022-10-08T07:23:48.957Z,9.65
2022-10-08T07:26:25.679Z,9.55
2022-10-08T07:28:59.052Z,8.68
2022-10-08T07:31:32.827Z,10.82
2022-10-08T07:34:02.688Z,10.63
2022-10-08T07:36:31.469Z,11.57
2022-10-08T07:39:01.903Z,11.20
2022-10-08T07:41:32.695Z,9.63
2022-10-08T07:44:02.297Z,10.27
2022-10-08T07:46:33.287Z,11.07
2022-10-08T07:49:04.991Z,9.60
2022-10-08T07:51:34.739Z,8.80
2022-10-08T07:54:08.598Z,7.45
2022-10-08T07:56:36.925Z,8.40
2022-10-08T07:59:23.533Z,9.00
2022-10-08T08:01:52.864Z,8.40
2022-10-08T08:04:20.576Z,7.30
2022-10-08T08:06:48.681Z,7.63
2022-10-08T08:09:19.604Z,7.30
2022-10-08T08:11:49.007Z,7.63
2022-10-08T08:14:17.080Z,7.65
2022-10-08T08:16:47.625Z,7.38
2022-10-08T08:19:15.355Z,7.68
2022-10-08T08:21:43.226Z,8.48
2022-10-08T08:24:15.498Z,8.20
2022-10-08T08:26:44.291Z,8.60
2022-10-08T08:29:18.116Z,8.60
2022-10-08T08:31:50.074Z,9.15
2022-10-08T08:34:23.985Z,8.85
2022-10-08T08:36:54.205Z,8.18
2022-10-08T08:39:28.524Z,9.23
2022-10-08T08:42:06.128Z,8.32
2022-10-08T08:44:43.833Z,9.43
2022-10-08T08:47:26.029Z,8.75
2022-10-08T08:49:55.522Z,7.88
2022-10-08T08:52:26.872Z,8.07
2022-10-08T08:54:55.247Z,7.85
2022-10-08T08:57:52.588Z,7.60
2022-10-08T09:00:24.061Z,7.65
2022-10-08T09:03:05.857Z,8.40
2022-10-08T09:05:39.889Z,7.55
2022-10-08T09:08:22.377Z,8.05
2022-10-08T09:11:00.050Z,8.68
2022-10-08T09:13:33.176Z,7.55
2022-10-08T09:16:01.858Z,7.63
2022-10-08T09:18:29.709Z,9.05
2022-10-08T09:20:58.311Z,8.13
2022-10-08T09:23:27.865Z,7.90
2022-10-08T09:26:23.809Z,9.60
2022-10-08T09:28:53.632Z,8.95
2022-10-08T09:31:41.228Z,9.70
2022-10-08T09:34:13.204Z,9.75
2022-10-08T09:36:54.349Z,8.98
2022-10-08T09:39:27.479Z,7.90
2022-10-08T09:42:06.795Z,9.20
2022-10-08T09:44:42.891Z,8.95
2022-10-08T09:47:15.703Z,9.30
2022-10-08T09:49:44.838Z,8.48
2022-10-08T09:52:28.587Z,8.48
2022-10-08T09:55:10.767Z,7.50
2022-10-08T09:57:49.512Z,9.90
2022-10-08T10:00:30.006Z,9.07
2022-10-08T10:02:59.911Z,7.72
2022-10-08T10:05:30.988Z,10.30
2022-10-08T10:07:58.557Z,9.48
2022-10-08T10:10:45.141Z,10.02
2022-10-08T10:13:23.662Z,7.53
2022-10-08T10:16:00.324Z,10.00
2022-10-08T10:18:49.843Z,10.73
2022-10-08T10:21:25.406Z,11.20
2022-10-08T10:24:40.240Z,9.50
2022-10-08T10:27:16.100Z,6.78
2022-10-08T10:30:20.966Z,9.38
2022-10-08T10:32:57.948Z,10.57
2022-10-08T10:35:31.943Z,10.80
2022-10-08T10:38:15.335Z,8.98
2022-10-08T10:40:51.581Z,10.55
2022-10-08T10:43:21.677Z,11.43
2022-10-08T10:45:57.278Z,10.98
2022-10-08T10:48:24.721Z,11.05
2022-10-08T10:51:10.776Z,12.60
2022-10-08T10:54:00.203Z,9.77
2022-10-08T10:56:34.135Z,11.27
2022-10-08T10:59:12.429Z,12.70
2022-10-08T11:02:16.115Z,11.38
2022-10-08T11:05:29.138Z,14.00
2022-10-08T11:08:11.598Z,14.35
2022-10-08T11:11:00.834Z,12.18
2022-10-08T11:13:49.566Z,11.32
2022-10-08T11:16:45.641Z,10.95
2022-10-08T11:19:32.782Z,12.20
2022-10-08T11:22:38.911Z,15.57
2022-10-08T11:26:09.904Z,11.23
2022-10-08T11:28:40.061Z,12.27
2022-10-08T11:31:17.517Z,14.38
2022-10-08T11:33:46.011Z,17.70
2022-10-08T11:36:50.716Z,14.30
2022-10-08T11:39:28.151Z,10.48
2022-10-08T11:42:01.300Z,12.73
2022-10-08T11:44:30.234Z,15.25
2022-10-08T11:47:35.293Z,13.80
2022-10-08T11:50:05.533Z,14.32
2022-10-08T11:52:34.235Z,15.82
2022-10-08T11:55:02.224Z,14.60
2022-10-08T11:58:02.988Z,13.23
2022-10-08T12:00:36.556Z,14.57
2022-10-08T12:03:18.628Z,14.02
2022-10-08T12:05:50.842Z,15.90
2022-10-08T12:08:53.268Z,11.35
2022-10-08T12:11:30.186Z,15.05
2022-10-08T12:14:12.732Z,14.02
2022-10-08T12:16:49.021Z,13.95
2022-10-08T12:19:35.009Z,14.07
2022-10-08T12:22:15.037Z,14.30
2022-10-08T12:24:49.684Z,11.88
2022-10-08T12:27:19.028Z,13.30
2022-10-08T12:30:14.212Z,14.50
2022-10-08T12:32:44.342Z,13.57
2022-10-08T12:35:22.193Z,13.10
2022-10-08T12:38:13.609Z,12.63
2022-10-08T12:40:48.222Z,14.10
2022-10-08T12:43:15.485Z,11.07
2022-10-08T12:45:55.930Z,10.77
2022-10-08T12:48:33.879Z,14.10
2022-10-08T12:51:19.513Z,11.18
2022-10-08T12:53:48.085Z,10.90
2022-10-08T12:56:24.499Z,11.43
2022-10-08T12:58:53.968Z,9.15
2022-10-08T13:01:22.103Z,9.70
2022-10-08T13:04:20.813Z,11.05
2022-10-08T13:06:50.379Z,8.10
2022-10-08T13:09:35.271Z,12.60
2022-10-08T13:12:05.830Z,13.35
2022-10-08T13:14:36.113Z,12.13
2022-10-08T13:17:04.763Z,13.43
2022-10-08T13:19:37.942Z,13.82
2022-10-08T13:22:25.875Z,13.35
2022-10-08T13:24:53.377Z,13.43
2022-10-08T13:27:26.719Z,14.68
2022-10-08T13:29:55.374Z,12.73
2022-10-08T13:32:26.456Z,10.65
2022-10-08T13:34:57.198Z,9.38
2022-10-08T13:37:26.719Z,8.95
2022-10-08T13:39:55.521Z,6.70
2022-10-08T13:42:27.650Z,8.20
2022-10-08T13:44:55.207Z,8.48
2022-10-08T13:47:22.966Z,7.97
2022-10-08T13:49:50.605Z,9.00
2022-10-08T13:52:23.947Z,8.77
2022-10-08T13:54:56.798Z,11.25
2022-10-08T13:57:25.340Z,8.68
2022-10-08T13:59:52.655Z,7.50
2022-10-08T14:02:20.204Z,7.00
2022-10-08T14:04:47.694Z,10.93
2022-10-08T14:07:25.872Z,7.07
2022-10-08T14:09:55.848Z,8.77
2022-10-08T14:12:26.625Z,7.25
2022-10-08T14:14:54.313Z,8.02
2022-10-08T14:17:22.266Z,9.00
2022-10-08T14:19:50.542Z,9.50
2022-10-08T14:22:18.946Z,7.60
2022-10-08T14:24:46.343Z,10.10
2022-10-08T14:27:16.080Z,9.80
2022-10-08T14:29:43.449Z,10.68
2022-10-08T14:32:11.830Z,9.70
2022-10-08T14:34:39.358Z,9.45
2022-10-08T14:37:06.839Z,9.38
2022-10-08T14:39:34.127Z,9.43
2022-10-08T14:42:01.373Z,9.48
2022-10-08T14:44:28.675Z,7.15
2022-10-08T14:46:55.996Z,9.57
2022-10-08T14:49:24.156Z,7.72
2022-10-08T14:51:51.475Z,8.70
2022-10-08T14:54:19.099Z,7.50
2022-10-08T14:56:48.235Z,8.20
2022-10-08T14:59:15.594Z,9.57
2022-10-08T15:01:42.951Z,10.43
2022-10-08T15:04:13.539Z,10.20
2022-10-08T15:06:41.703Z,10.43
2022-10-08T15:09:11.327Z,11.93
2022-10-08T15:11:38.798Z,11.88
2022-10-08T15:14:06.583Z,11.10
2022-10-08T15:16:34.623Z,11.60
2022-10-08T15:19:02.530Z,11.95
2022-10-08T15:21:31.988Z,11.43
2022-10-08T15:23:59.298Z,12.32
2022-10-08T15:26:27.299Z,12.10
2022-10-08T15:28:54.887Z,11.13
2022-10-08T15:31:25.133Z,10.30
2022-10-08T15:33:54.725Z,11.90
2022-10-08T15:36:30.656Z,12.88
2022-10-08T15:39:03.748Z,11.90
2022-10-08T15:41:36.592Z,11.32
2022-10-08T15:44:12.756Z,11.07
2022-10-08T15:46:40.058Z,13.43
2022-10-08T15:49:07.550Z,10.85
2022-10-08T15:51:34.923Z,12.63
2022-10-08T15:54:02.847Z,11.93
2022-10-08T15:56:30.376Z,14.00
2022-10-08T15:58:59.308Z,11.23
2022-10-08T16:01:27.569Z,10.43
2022-10-08T16:03:56.363Z,9.77
2022-10-08T16:06:26.620Z,10.57
2022-10-08T16:08:57.708Z,10.77
2022-10-08T16:11:28.857Z,10.63
2022-10-08T16:14:14.141Z,10.70
2022-10-08T16:16:42.792Z,9.68
2022-10-08T16:19:18.694Z,9.68
2022-10-08T16:21:47.381Z,9.77
2022-10-08T16:24:15.543Z,10.07
2022-10-08T16:26:43.582Z,10.57
2022-10-08T16:29:13.293Z,11.50
2022-10-08T16:31:41.981Z,11.75
2022-10-08T16:34:16.656Z,10.93
2022-10-08T16:36:44.355Z,9.50
2022-10-08T16:39:14.051Z,10.40
2022-10-08T16:41:41.797Z,10.27
2022-10-08T16:44:13.199Z,10.35
2022-10-08T16:46:48.199Z,9.10
2022-10-08T16:49:26.873Z,10.82
2022-10-08T16:52:00.186Z,11.68
2022-10-08T16:54:28.265Z,13.30
2022-10-08T16:56:56.669Z,14.52
2022-10-08T16:59:26.727Z,14.68
2022-10-08T17:01:56.245Z,15.43
2022-10-08T17:04:24.991Z,13.55
2022-10-08T17:06:52.569Z,13.32
2022-10-08T17:09:20.706Z,14.63
2022-10-08T17:11:48.175Z,15.50
2022-10-08T17:14:16.051Z,14.75
2022-10-08T17:16:44.970Z,14.40
2022-10-08T17:19:12.556Z,14.32
2022-10-08T17:21:40.427Z,15.35
2022-10-08T17:24:07.784Z,15.70
2022-10-08T17:26:35.381Z,15.57
2022-10-08T17:29:08.327Z,15.10
2022-10-08T17:31:36.994Z,15.25
2022-10-08T17:34:05.614Z,15.32
2022-10-08T17:36:36.055Z,15.02
2022-10-08T17:39:07.693Z,14.13
2022-10-08T17:41:39.812Z,14.50
2022-10-08T17:44:09.749Z,13.77
2022-10-08T17:46:43.702Z,15.60
2022-10-08T17:49:13.941Z,17.65
2022-10-08T17:51:44.710Z,17.83
2022-10-08T17:54:14.622Z,15.75
2022-10-08T17:56:42.478Z,15.95
2022-10-08T17:59:19.803Z,15.75
2022-10-08T18:01:47.292Z,13.48
2022-10-08T18:04:17.433Z,14.00
2022-10-08T18:06:46.868Z,12.85
2022-10-08T18:09:17.007Z,13.82
2022-10-08T18:11:47.761Z,13.98
2022-10-08T18:14:17.083Z,13.60
2022-10-08T18:16:48.111Z,13.77
2022-10-08T18:19:19.484Z,13.65
2022-10-08T18:21:46.859Z,12.32
2022-10-08T18:24:14.841Z,15.02
2022-10-08T18:26:42.828Z,15.80
2022-10-08T18:29:13.211Z,14.38
2022-10-08T18:31:42.836Z,14.32
2022-10-08T18:34:15.047Z,13.45
2022-10-08T18:36:43.968Z,15.60
2022-10-08T18:39:14.480Z,13.93
2022-10-08T18:41:45.028Z,13.50
2022-10-08T18:44:15.228Z,13.40
2022-10-08T18:46:46.836Z,14.27
2022-10-08T18:51:43.531Z,14.10
2022-10-08T18:54:30.618Z,13.00
2022-10-08T18:57:00.234Z,14.20
2022-10-08T18:59:27.690Z,13.82
2022-10-08T19:01:59.082Z,13.85
2022-10-08T19:04:27.403Z,13.65
2022-10-08T19:06:54.840Z,13.43
2022-10-08T19:09:22.527Z,13.00
2022-10-08T19:11:52.378Z,13.10
2022-10-08T19:14:21.782Z,13.02
2022-10-08T19:16:49.978Z,12.63
2022-10-08T19:19:23.027Z,14.15
2022-10-08T19:21:52.009Z,14.70
2022-10-08T19:24:22.032Z,52.67
2022-10-08T19:26:50.863Z,22.02
2022-10-08T19:29:21.035Z,16.67
2022-10-08T19:31:50.089Z,17.15
2022-10-08T19:34:23.764Z,16.90
2022-10-08T19:36:51.756Z,17.83
2022-10-08T19:39:28.392Z,16.73
2022-10-08T19:41:55.723Z,17.73
2022-10-08T19:44:24.918Z,15.80
2022-10-08T19:46:52.430Z,16.50
2022-10-08T19:49:19.930Z,17.15
2022-10-08T19:51:50.311Z,16.60
2022-10-08T19:54:18.288Z,15.88
2022-10-08T19:56:45.770Z,17.42
2022-10-08T19:59:13.564Z,16.17
2022-10-08T20:01:41.912Z,16.05
2022-10-08T20:04:10.183Z,15.57
2022-10-08T20:06:40.466Z,17.25
2022-10-08T20:09:12.859Z,15.65
2022-10-08T20:11:41.706Z,15.82
2022-10-08T20:14:09.684Z,15.07
2022-10-08T20:16:39.969Z,15.38
2022-10-08T20:19:14.122Z,14.75
2022-10-08T20:21:42.171Z,32.38
2022-10-08T20:24:10.093Z,37.53
2022-10-08T20:26:41.978Z,23.50
2022-10-08T20:29:20.791Z,19.05
2022-10-08T20:31:50.714Z,16.55
2022-10-08T20:34:20.729Z,16.67
2022-10-08T20:36:49.327Z,16.88
2022-10-08T20:39:18.222Z,17.13
2022-10-08T20:41:45.570Z,15.63
2022-10-08T20:44:13.009Z,16.40
2022-10-08T20:46:41.120Z,16.08
2022-10-08T20:49:11.800Z,14.70
2022-10-08T20:51:41.010Z,17.48
2022-10-08T20:54:10.891Z,16.30
2022-10-08T20:56:40.380Z,16.27
2022-10-08T20:59:10.030Z,15.43
2022-10-08T21:01:38.669Z,14.95
2022-10-08T21:04:07.012Z,16.92
2022-10-08T21:06:43.492Z,16.13
2022-10-08T21:09:11.794Z,15.43
2022-10-08T21:11:39.170Z,55.53
2022-10-08T21:14:07.843Z,20.35
2022-10-08T21:16:38.729Z,17.27
2022-10-08T21:19:09.882Z,17.75
2022-10-08T21:21:37.418Z,16.00
2022-10-08T21:24:05.014Z,17.10
2022-10-08T21:26:35.844Z,15.27
2022-10-08T21:29:06.083Z,15.35
2022-10-08T21:31:35.740Z,14.65
2022-10-08T21:34:04.190Z,15.15
2022-10-08T21:36:34.600Z,15.55
2022-10-08T21:39:03.676Z,15.68
2022-10-08T21:41:34.667Z,16.48
2022-10-08T21:44:04.885Z,15.43
2022-10-08T21:46:34.798Z,15.82
2022-10-08T21:49:16.596Z,14.23
2022-10-08T21:51:44.782Z,16.17
2022-10-08T21:54:12.928Z,15.18
2022-10-08T21:56:42.297Z,16.30
2022-10-08T21:59:12.431Z,15.45
2022-10-08T22:01:45.660Z,16.17
2022-10-08T22:04:18.778Z,15.50
2022-10-08T22:06:48.538Z,17.23
2022-10-08T22:09:21.816Z,16.58
2022-10-08T22:11:50.347Z,16.27
2022-10-08T22:14:18.895Z,16.48
2022-10-08T22:16:46.596Z,15.75
2022-10-08T22:19:14.801Z,17.85
2022-10-08T22:21:42.385Z,16.48
2022-10-08T22:24:10.169Z,16.70
2022-10-08T22:26:41.024Z,16.48
2022-10-08T22:29:08.587Z,17.52
2022-10-08T22:31:36.130Z,17.45
2022-10-08T22:34:03.836Z,16.63
2022-10-08T22:36:33.478Z,16.35
2022-10-08T22:39:00.857Z,17.80
2022-10-08T22:41:31.236Z,16.67
2022-10-08T22:43:59.289Z,16.63
2022-10-08T22:46:33.978Z,16.50
2022-10-08T22:49:07.219Z,17.27
2022-10-08T22:51:35.051Z,15.85
2022-10-08T22:54:02.369Z,17.02
2022-10-08T22:56:33.349Z,16.35
2022-10-08T22:59:01.121Z,16.70
2022-10-08T23:01:30.336Z,16.98
2022-10-08T23:03:58.339Z,17.40
2022-10-08T23:06:31.935Z,16.77
2022-10-08T23:09:02.246Z,17.65
2022-10-08T23:11:30.134Z,16.15
2022-10-08T23:13:58.707Z,16.25
2022-10-08T23:16:27.932Z,16.67
2022-10-08T23:19:00.923Z,16.45
2022-10-08T23:21:28.598Z,16.13
2022-10-08T23:23:56.854Z,16.52
2022-10-08T23:26:27.374Z,17.27
2022-10-08T23:28:58.063Z,16.48
2022-10-08T23:31:30.958Z,18.30
2022-10-08T23:33:58.839Z,16.15
2022-10-08T23:36:31.293Z,17.35
2022-10-08T23:39:08.215Z,16.60
2022-10-08T23:41:36.125Z,15.65
2022-10-08T23:44:04.028Z,17.58
2022-10-08T23:46:31.770Z,16.52
2022-10-08T23:48:59.617Z,16.38
2022-10-08T23:51:29.137Z,16.58
2022-10-08T23:53:56.688Z,17.67
2022-10-08T23:56:26.119Z,17.10
2022-10-08T23:59:01.249Z,16.40
